Time;durP1;ratioP1;P1;durP2;ratioP2;P2;SDS_P1;SDS_P2;PMS_P1;PMS_P2;Temp;Humidity;BMP_temperature;BMP_pressure;BME280_temperature;BME280_humidity;BME280_pressure;Samples;Min_cycle;Max_cycle;Signal;HPM_P1;HPM_P2
2024/03/25 05:32:13;;;;;;;0.13;0.13;;;6.70;82.60;;;;;;5171503;22;20052;-74
2024/03/25 05:34:38;;;;;;;0.10;0.10;;;6.70;82.70;;;;;;5036435;28;20033;-75
2024/03/25 05:37:04;;;;;;;0.10;0.10;;;6.60;82.90;;;;;;5055186;28;20029;-75
2024/03/25 05:39:30;;;;;;;0.10;0.10;;;6.60;83.10;;;;;;5054878;28;20059;-75
2024/03/25 05:41:55;;;;;;;0.10;0.10;;;6.60;83.20;;;;;;5054750;28;20052;-75
2024/03/25 05:44:21;;;;;;;0.10;0.10;;;6.60;83.10;;;;;;5039765;28;20064;-75
2024/03/25 05:46:46;;;;;;;0.10;0.10;;;6.60;83.20;;;;;;5035314;28;20017;-75
2024/03/25 05:49:12;;;;;;;0.13;0.13;;;6.60;83.20;;;;;;5041770;28;20040;-74
2024/03/25 05:51:38;;;;;;;0.10;0.10;;;6.60;83.10;;;;;;5053592;28;20021;-75
2024/03/25 05:54:04;;;;;;;0.10;0.10;;;6.50;83.20;;;;;;5039033;28;20085;-75
2024/03/25 05:56:30;;;;;;;0.10;0.10;;;6.50;83.20;;;;;;5039463;28;20021;-78
2024/03/25 05:59:00;;;;;;;0.10;0.10;;;6.50;83.40;;;;;;5039547;28;20036;-78
2024/03/25 06:01:26;;;;;;;0.10;0.10;;;6.50;83.30;;;;;;5058533;28;20453;-79
2024/03/25 06:03:52;;;;;;;0.10;0.10;;;6.60;83.10;;;;;;5058372;28;20078;-74
2024/03/25 06:06:17;;;;;;;0.10;0.10;;;6.70;83.00;;;;;;5053404;28;20029;-76
2024/03/25 06:08:43;;;;;;;0.10;0.10;;;6.60;83.00;;;;;;5040110;28;20021;-75
2024/03/25 06:11:09;;;;;;;0.10;0.10;;;6.60;83.00;;;;;;5057287;28;20017;-77
2024/03/25 06:13:35;;;;;;;0.20;0.20;;;6.60;82.90;;;;;;5057590;28;20032;-80
2024/03/25 06:16:00;;;;;;;0.10;0.10;;;6.60;83.00;;;;;;5058658;28;20029;-80
2024/03/25 06:18:26;;;;;;;0.10;0.10;;;6.60;83.10;;;;;;5058456;28;20025;-78
2024/03/25 06:20:52;;;;;;;0.10;0.10;;;6.60;83.20;;;;;;5039146;28;20067;-86
2024/03/25 06:23:24;;;;;;;0.10;0.10;;;6.50;83.30;;;;;;5067089;28;20028;-78
2024/03/25 06:25:52;;;;;;;0.10;0.10;;;6.50;83.50;;;;;;5054976;28;20075;-78
2024/03/25 06:28:19;;;;;;;0.10;0.10;;;6.50;83.50;;;;;;5053635;28;20032;-78
2024/03/25 06:36:15;;;;;;;0.20;0.20;;;6.50;83.70;;;;;;5039544;28;20416;-79
2024/03/25 06:38:41;;;;;;;0.10;0.10;;;6.50;83.60;;;;;;5020283;28;20044;-80
2024/03/25 06:41:07;;;;;;;0.20;0.20;;;6.50;83.60;;;;;;5038179;28;20025;-79
2024/03/25 06:43:33;;;;;;;0.10;0.10;;;6.60;83.50;;;;;;5038128;28;20405;-78
2024/03/25 06:45:58;;;;;;;0.20;0.20;;;6.70;83.50;;;;;;5037907;28;20029;-79
2024/03/25 06:48:24;;;;;;;0.10;0.10;;;6.80;83.40;;;;;;5039932;28;20083;-80
2024/03/25 06:50:57;;;;;;;0.10;0.10;;;6.90;83.10;;;;;;5033626;28;20024;-77
2024/03/25 06:53:23;;;;;;;;;;;7.10;83.00;;;;;;5058012;28;20134;-81
2024/03/25 06:55:55;;;;;;;0.13;0.13;;;7.20;82.70;;;;;;5047099;28;19908;-79
2024/03/25 06:58:22;;;;;;;0.20;0.20;;;7.20;82.40;;;;;;5036296;28;20044;-79
2024/03/25 07:00:48;;;;;;;0.20;0.20;;;7.30;82.20;;;;;;5047916;28;20037;-80
2024/03/25 07:03:23;;;;;;;0.20;0.20;;;7.70;81.90;;;;;;5034915;28;20594;-79
2024/03/25 07:05:54;;;;;;;0.10;0.10;;;8.30;80.00;;;;;;5037110;28;20350;-79
2024/03/25 07:08:20;;;;;;;0.20;0.20;;;8.30;79.60;;;;;;5033097;28;20048;-80
2024/03/25 07:10:46;;;;;;;0.20;0.20;;;8.20;79.90;;;;;;5034959;28;20018;-79
2024/03/25 07:13:12;;;;;;;0.20;0.20;;;8.50;79.10;;;;;;5054844;28;20021;-79
2024/03/25 07:15:39;;;;;;;0.20;0.20;;;8.60;78.80;;;;;;5025772;28;20029;-80
2024/03/25 07:18:05;;;;;;;0.20;0.20;;;8.90;77.30;;;;;;5051028;28;20028;-80
2024/03/25 07:20:32;;;;;;;0.20;0.20;;;9.10;77.30;;;;;;5055151;28;20068;-76
2024/03/25 07:22:57;;;;;;;0.10;0.10;;;9.30;76.50;;;;;;5054342;28;20033;-76
2024/03/25 07:25:24;;;;;;;0.20;0.20;;;9.30;75.40;;;;;;5054109;28;20112;-76
2024/03/25 07:27:50;;;;;;;0.20;0.20;;;9.10;75.70;;;;;;5055519;28;20017;-76
2024/03/25 07:30:16;;;;;;;0.20;0.20;;;9.00;75.90;;;;;;5037652;28;20043;-75
2024/03/25 07:32:41;;;;;;;0.10;0.10;;;8.90;76.40;;;;;;5043278;28;20033;-75
2024/03/25 07:35:09;;;;;;;0.10;0.10;;;8.70;76.00;;;;;;5036163;28;20079;-75
2024/03/25 07:37:35;;;;;;;0.10;0.10;;;8.70;76.00;;;;;;5036108;28;20024;-76
2024/03/25 07:40:00;;;;;;;0.20;0.20;;;8.80;76.30;;;;;;5043817;28;20032;-76
2024/03/25 07:42:26;;;;;;;0.20;0.20;;;9.00;75.70;;;;;;5056048;28;20029;-75
2024/03/25 07:44:52;;;;;;;0.20;0.20;;;9.00;74.90;;;;;;5054579;28;20542;-76
2024/03/25 07:47:18;;;;;;;0.20;0.20;;;9.10;74.60;;;;;;5050143;28;20063;-76
2024/03/25 07:49:44;;;;;;;0.20;0.20;;;9.30;73.80;;;;;;5036494;28;20489;-75
2024/03/25 07:52:09;;;;;;;0.20;0.20;;;10.00;72.80;;;;;;5036660;28;20113;-76
2024/03/25 07:54:37;;;;;;;0.20;0.20;;;10.50;70.60;;;;;;5036081;28;20381;-76
2024/03/25 07:57:03;;;;;;;0.20;0.20;;;11.10;69.40;;;;;;5037463;28;20025;-75
2024/03/25 07:59:29;;;;;;;0.30;0.30;;;11.80;65.90;;;;;;5056059;28;20021;-75
2024/03/25 08:01:55;;;;;;;0.30;0.30;;;12.30;64.20;;;;;;5053437;28;20040;-76
2024/03/25 08:04:20;;;;;;;0.30;0.30;;;12.40;63.10;;;;;;5056227;28;20033;-76
2024/03/25 08:06:46;;;;;;;0.20;0.20;;;12.90;62.70;;;;;;5056339;28;20460;-77
2024/03/25 08:09:13;;;;;;;0.20;0.20;;;13.10;60.70;;;;;;5042737;28;20036;-76
2024/03/25 08:11:39;;;;;;;0.20;0.20;;;12.80;60.30;;;;;;5036533;28;20038;-76
2024/03/25 08:14:05;;;;;;;0.30;0.30;;;12.50;61.70;;;;;;5035768;28;20026;-76
2024/03/25 08:16:30;;;;;;;0.20;0.20;;;12.40;62.30;;;;;;5035965;28;20080;-76
2024/03/25 08:18:56;;;;;;;0.20;0.20;;;12.40;61.90;;;;;;5041493;28;20021;-76
2024/03/25 08:21:23;;;;;;;0.22;0.22;;;12.30;61.50;;;;;;5045469;28;20108;-76
2024/03/25 08:23:48;;;;;;;0.20;0.20;;;12.20;61.70;;;;;;5035968;28;20021;-76
2024/03/25 08:26:14;;;;;;;0.20;0.20;;;12.30;62.30;;;;;;5042255;28;20039;-76
2024/03/25 08:28:40;;;;;;;0.20;0.20;;;12.30;61.50;;;;;;5038070;28;20718;-77
2024/03/25 08:31:05;;;;;;;0.30;0.30;;;12.50;62.10;;;;;;5043146;28;20058;-76
2024/03/25 08:33:31;;;;;;;0.30;0.30;;;12.60;60.90;;;;;;5042748;28;20472;-77
2024/03/25 08:35:57;;;;;;;0.20;0.20;;;12.50;60.50;;;;;;5035854;28;20060;-76
2024/03/25 08:38:22;;;;;;;0.40;0.40;;;12.50;61.00;;;;;;5035897;28;20733;-76
2024/03/25 08:40:48;;;;;;;0.30;0.30;;;12.50;60.00;;;;;;5046181;28;20029;-76
2024/03/25 08:43:14;;;;;;;0.28;0.28;;;12.50;59.50;;;;;;5046516;28;20430;-77
2024/03/25 08:45:40;;;;;;;0.40;0.40;;;12.50;60.50;;;;;;5035869;28;20060;-76
2024/03/25 08:48:06;;;;;;;0.10;0.10;;;12.60;60.00;;;;;;5033774;28;20048;-76
2024/03/25 08:50:32;;;;;;;0.35;0.35;;;12.60;59.40;;;;;;5017862;28;20034;-77
2024/03/25 08:52:58;;;;;;;0.40;0.40;;;12.80;59.00;;;;;;5035332;28;20121;-77
2024/03/25 08:55:23;;;;;;;0.40;0.40;;;13.20;58.40;;;;;;5035669;28;20033;-76
2024/03/25 08:57:50;;;;;;;0.45;0.45;;;13.60;57.10;;;;;;5035473;28;20026;-76
2024/03/25 09:00:18;;;;;;;0.20;0.20;;;14.00;55.50;;;;;;5017848;28;20057;-76
2024/03/25 09:02:43;;;;;;;0.50;0.50;;;14.00;55.40;;;;;;5041599;28;20039;-76
2024/03/25 09:05:10;;;;;;;0.40;0.40;;;14.10;55.70;;;;;;5051447;28;20029;-76
2024/03/25 09:07:36;;;;;;;0.60;0.60;;;14.40;55.20;;;;;;5017733;28;20086;-76
2024/03/25 09:12:46;;;;;;;0.30;0.30;;;14.90;53.20;;;;;;5047164;28;20080;-76
2024/03/25 09:15:12;;;;;;;0.60;0.60;;;14.90;52.60;;;;;;5020409;28;20033;-76
2024/03/25 09:17:38;;;;;;;0.40;0.40;;;15.20;52.00;;;;;;5047886;28;20040;-77
2024/03/25 09:20:08;;;;;;;0.20;0.20;;;15.50;51.80;;;;;;5035079;28;20029;-77
2024/03/25 09:22:38;;;;;;;0.93;0.93;;;15.30;51.60;;;;;;5035144;28;20151;-76
2024/03/25 09:25:04;;;;;;;0.80;0.80;;;15.30;51.80;;;;;;5035012;28;20061;-77
2024/03/25 09:27:29;;;;;;;0.50;0.50;;;15.10;51.90;;;;;;5038260;28;20027;-76
2024/03/25 09:29:55;;;;;;;0.93;0.93;;;15.30;51.80;;;;;;5039256;28;20036;-76
2024/03/25 09:32:21;;;;;;;3.70;3.55;;;15.80;50.10;;;;;;5046293;28;20579;-76
2024/03/25 09:34:50;;;;;;;0.60;0.60;;;16.30;48.70;;;;;;5038876;28;20029;-77
2024/03/25 09:37:15;;;;;;;0.90;0.90;;;16.80;47.00;;;;;;5054610;28;20029;-76
2024/03/25 09:39:41;;;;;;;0.85;0.85;;;17.40;45.70;;;;;;5059206;28;20025;-76
2024/03/25 09:42:08;;;;;;;1.10;1.10;;;17.90;43.90;;;;;;5057461;28;20033;-77
2024/03/25 09:44:34;;;;;;;1.92;1.83;;;18.10;43.00;;;;;;5059044;28;20032;-77
2024/03/25 09:47:00;;;;;;;0.70;0.70;;;17.80;42.40;;;;;;5041614;28;20022;-77
2024/03/25 09:49:28;;;;;;;0.70;0.70;;;17.50;43.20;;;;;;5037721;28;20045;-77
2024/03/25 09:51:53;;;;;;;0.70;0.70;;;17.80;43.70;;;;;;5039672;28;20022;-77
2024/03/25 09:54:19;;;;;;;0.70;0.70;;;17.40;42.40;;;;;;5040883;28;20044;-76
2024/03/25 09:56:45;;;;;;;0.80;0.80;;;17.30;42.50;;;;;;5058850;28;20033;-77
2024/03/25 09:59:12;;;;;;;0.70;0.70;;;17.30;42.50;;;;;;5051192;28;20414;-77
2024/03/25 10:01:37;;;;;;;0.80;0.80;;;17.10;42.10;;;;;;5038617;28;20028;-77
2024/03/25 10:04:03;;;;;;;0.90;0.90;;;17.30;42.40;;;;;;5043050;28;20037;-77
2024/03/25 10:06:29;;;;;;;0.80;0.80;;;17.70;43.60;;;;;;5020589;28;20566;-77
2024/03/25 10:08:57;;;;;;;1.00;1.00;;;17.80;43.40;;;;;;5020772;28;20025;-76
2024/03/25 10:11:22;;;;;;;0.80;0.80;;;17.80;43.10;;;;;;5038688;28;20083;-77
2024/03/25 10:13:48;;;;;;;0.60;0.60;;;17.60;43.10;;;;;;5038705;28;20029;-77
2024/03/25 10:16:14;;;;;;;0.60;0.60;;;17.30;43.60;;;;;;5038144;28;20025;-77
2024/03/25 10:18:40;;;;;;;0.43;0.43;;;16.70;44.00;;;;;;5051670;28;20433;-83
2024/03/25 10:21:10;;;;;;;0.10;0.10;;;16.40;43.60;;;;;;5036788;28;20033;-82
2024/03/25 10:23:40;;;;;;;0.10;0.10;;;15.80;44.50;;;;;;5038930;28;20057;-83
2024/03/25 10:26:06;;;;;;;0.10;0.10;;;15.50;46.00;;;;;;5038317;28;20489;-82
2024/03/25 10:28:32;;;;;;;0.10;0.10;;;15.20;47.10;;;;;;5037814;28;20025;-82
2024/03/25 10:31:04;;;;;;;0.10;0.10;;;15.00;47.90;;;;;;5020974;28;20132;-82
2024/03/25 10:33:30;;;;;;;0.20;0.20;;;14.70;47.40;;;;;;5029942;28;20026;-82
2024/03/25 10:35:58;;;;;;;0.10;0.10;;;14.50;49.90;;;;;;5038285;28;20294;-82
2024/03/25 10:38:25;;;;;;;0.15;0.15;;;14.50;48.40;;;;;;5038024;28;20108;-82
2024/03/25 10:40:54;;;;;;;0.10;0.10;;;14.50;49.70;;;;;;5049486;28;20033;-83
2024/03/25 10:43:21;;;;;;;0.10;0.10;;;14.40;48.80;;;;;;5043846;28;20107;-83
2024/03/25 10:45:53;;;;;;;0.10;0.10;;;14.60;49.30;;;;;;5056816;28;20463;-83
2024/03/25 10:48:30;;;;;;;0.10;0.10;;;14.60;48.90;;;;;;5038826;28;20025;-82
2024/03/25 10:50:59;;;;;;;0.10;0.10;;;14.50;48.90;;;;;;5040209;28;20024;-83
2024/03/25 10:53:27;;;;;;;0.10;0.10;;;14.50;50.40;;;;;;5055141;28;20158;-82
2024/03/25 10:55:54;;;;;;;0.10;0.10;;;14.50;51.20;;;;;;5037728;28;20078;-83
2024/03/25 10:58:22;;;;;;;0.10;0.10;;;14.40;52.00;;;;;;5050142;28;20039;-83
2024/03/25 11:00:50;;;;;;;0.20;0.20;;;14.50;51.20;;;;;;5057422;28;20118;-83
2024/03/25 11:03:16;;;;;;;0.10;0.10;;;14.50;51.10;;;;;;5050906;28;20081;-82
2024/03/25 11:05:42;;;;;;;0.20;0.20;;;14.60;51.60;;;;;;5019535;28;20047;-83
2024/03/25 11:08:15;;;;;;;0.10;0.10;;;14.50;51.30;;;;;;5030218;28;20021;-82
2024/03/25 11:10:42;;;;;;;0.10;0.10;;;14.60;51.00;;;;;;5019802;28;20083;-82
2024/03/25 11:13:12;;;;;;;0.10;0.10;;;14.50;51.20;;;;;;5036902;28;20029;-82
2024/03/25 11:15:44;;;;;;;0.10;0.10;;;14.60;52.40;;;;;;5037593;28;20029;-83
2024/03/25 11:18:14;;;;;;;0.20;0.20;;;14.70;52.30;;;;;;5044359;28;20128;-82
2024/03/25 11:20:40;;;;;;;0.10;0.10;;;14.60;52.70;;;;;;5055558;28;20036;-82
2024/03/25 11:23:13;;;;;;;0.10;0.10;;;14.50;52.10;;;;;;5037581;28;20518;-83
2024/03/25 11:25:39;;;;;;;0.20;0.20;;;14.70;51.80;;;;;;5037202;28;20084;-82
2024/03/25 11:28:05;;;;;;;0.10;0.10;;;14.70;52.40;;;;;;5020056;28;20464;-83
2024/03/25 11:30:31;;;;;;;0.20;0.20;;;14.80;51.10;;;;;;5037062;28;20042;-86
2024/03/25 11:33:01;;;;;;;0.10;0.10;;;14.70;51.90;;;;;;5035005;28;20420;-86
2024/03/25 11:35:27;;;;;;;0.10;0.10;;;14.60;52.40;;;;;;5055988;28;20052;-86
2024/03/25 11:37:53;;;;;;;0.10;0.10;;;14.50;52.10;;;;;;5038640;28;20517;-86
2024/03/25 11:40:19;;;;;;;0.10;0.10;;;14.50;53.40;;;;;;5036828;28;20030;-85
2024/03/25 11:42:46;;;;;;;0.10;0.10;;;14.40;53.10;;;;;;5018985;28;20098;-85
2024/03/25 11:45:19;;;;;;;0.10;0.10;;;14.60;52.80;;;;;;5037446;28;20087;-85
2024/03/25 11:47:46;;;;;;;0.10;0.10;;;14.60;52.40;;;;;;5037165;28;20036;-85
2024/03/25 11:50:17;;;;;;;0.10;0.10;;;14.70;53.50;;;;;;5054673;28;20079;-85
2024/03/25 11:52:43;;;;;;;0.10;0.10;;;14.90;52.40;;;;;;5038879;28;20380;-85
2024/03/25 11:55:09;;;;;;;0.10;0.10;;;14.90;53.20;;;;;;5039558;28;20044;-86
2024/03/25 11:57:36;;;;;;;0.10;0.10;;;15.20;52.30;;;;;;5018775;28;20030;-85
2024/03/25 12:00:05;;;;;;;0.10;0.10;;;15.20;51.90;;;;;;5019586;28;20025;-85
2024/03/25 12:02:31;;;;;;;0.10;0.10;;;15.00;52.00;;;;;;5040747;28;20028;-85
2024/03/25 12:04:57;;;;;;;0.10;0.10;;;14.80;51.90;;;;;;5051445;28;20026;-85
2024/03/25 12:07:22;;;;;;;0.10;0.10;;;14.70;52.30;;;;;;5036559;28;20029;-84
2024/03/25 12:12:34;;;;;;;0.10;0.10;;;14.80;53.90;;;;;;5036907;28;20393;-85
2024/03/25 12:15:02;;;;;;;0.10;0.10;;;14.70;53.00;;;;;;5035311;28;20033;-85
2024/03/25 12:17:28;;;;;;;0.10;0.10;;;14.70;52.80;;;;;;5018451;28;20496;-84
2024/03/25 12:20:05;;;;;;;0.10;0.10;;;14.60;52.70;;;;;;5036191;28;20028;-85
2024/03/25 12:22:35;;;;;;;0.10;0.10;;;14.60;53.10;;;;;;5044442;28;20025;-85
2024/03/25 12:25:03;;;;;;;0.10;0.10;;;14.70;52.80;;;;;;5049664;28;20063;-85
2024/03/25 12:27:29;;;;;;;0.10;0.10;;;14.70;52.00;;;;;;5018290;28;20029;-83
2024/03/25 12:30:01;;;;;;;0.10;0.10;;;14.70;52.10;;;;;;5036364;28;20083;-78
2024/03/25 12:32:37;;;;;;;0.10;0.10;;;14.70;53.60;;;;;;5043433;28;20049;-80
2024/03/25 12:35:06;;;;;;;0.10;0.10;;;14.80;53.40;;;;;;5037282;28;20029;-81
2024/03/25 12:37:32;;;;;;;0.10;0.10;;;15.10;52.30;;;;;;5036855;28;20025;-81
2024/03/25 12:39:59;;;;;;;0.10;0.10;;;15.00;52.40;;;;;;5038782;28;20039;-81
2024/03/25 12:42:29;;;;;;;0.10;0.10;;;15.00;53.00;;;;;;5047308;28;20030;-77
2024/03/25 12:44:54;;;;;;;0.10;0.10;;;14.90;53.30;;;;;;5035909;28;20500;-80
2024/03/25 12:47:20;;;;;;;0.10;0.10;;;14.80;52.50;;;;;;5036897;28;20029;-79
2024/03/25 12:49:46;;;;;;;0.10;0.10;;;14.80;53.20;;;;;;5036483;28;20064;-80
2024/03/25 12:52:12;;;;;;;0.10;0.10;;;14.90;53.20;;;;;;5018547;28;20037;-80
2024/03/25 12:54:37;;;;;;;0.10;0.10;;;14.90;54.20;;;;;;5036340;28;20053;-80
2024/03/25 12:57:03;;;;;;;0.10;0.10;;;14.90;53.90;;;;;;5036335;28;20025;-79
2024/03/25 12:59:29;;;;;;;0.10;0.10;;;15.10;53.60;;;;;;5052372;28;20096;-79
2024/03/25 13:01:56;;;;;;;0.10;0.10;;;15.10;54.10;;;;;;5037773;28;20032;-79
2024/03/25 13:04:21;;;;;;;0.10;0.10;;;15.20;52.90;;;;;;5037767;28;20029;-79
2024/03/25 13:06:47;;;;;;;0.10;0.10;;;15.10;52.90;;;;;;5044707;28;20028;-79
2024/03/25 13:09:13;;;;;;;0.10;0.10;;;15.10;52.50;;;;;;5035885;28;20380;-79
2024/03/25 13:11:38;;;;;;;0.10;0.10;;;15.20;52.50;;;;;;5036019;28;20483;-79
2024/03/25 13:14:07;;;;;;;0.10;0.10;;;15.20;52.50;;;;;;5035765;28;20026;-80
2024/03/25 13:16:33;;;;;;;0.10;0.10;;;15.20;52.80;;;;;;5035878;28;20043;-79
2024/03/25 13:18:59;;;;;;;0.10;0.10;;;15.20;52.20;;;;;;5039448;28;20103;-79
2024/03/25 13:21:25;;;;;;;0.10;0.10;;;15.20;52.50;;;;;;5056108;28;20025;-79
2024/03/25 13:23:52;;;;;;;0.10;0.10;;;14.90;52.10;;;;;;5055923;28;20017;-79
2024/03/25 13:26:17;;;;;;;0.10;0.10;;;14.80;52.90;;;;;;5051433;28;20026;-79
2024/03/25 13:28:43;;;;;;;0.10;0.10;;;14.70;52.90;;;;;;5053713;28;20043;-79
2024/03/25 13:31:09;;;;;;;0.10;0.10;;;14.70;53.00;;;;;;5053800;28;20049;-78
2024/03/25 13:33:36;;;;;;;0.10;0.10;;;14.80;53.50;;;;;;5042125;28;20018;-79
2024/03/25 13:36:02;;;;;;;0.10;0.10;;;14.80;53.70;;;;;;5036174;28;20033;-79
2024/03/25 13:38:28;;;;;;;0.10;0.10;;;14.80;53.40;;;;;;5035731;28;20032;-79
2024/03/25 13:40:53;;;;;;;0.10;0.10;;;14.70;54.10;;;;;;5047003;28;20068;-79
2024/03/25 13:43:19;;;;;;;0.10;0.10;;;14.60;54.00;;;;;;5055345;28;20500;-80
2024/03/25 13:45:49;;;;;;;0.10;0.10;;;14.60;55.00;;;;;;5055785;28;20032;-79
2024/03/25 13:48:15;;;;;;;0.10;0.10;;;14.60;55.60;;;;;;5046572;28;20065;-79
2024/03/25 13:50:42;;;;;;;0.10;0.10;;;14.80;54.20;;;;;;5018734;28;20022;-79
2024/03/25 13:53:09;;;;;;;0.10;0.10;;;14.80;54.80;;;;;;5037342;28;20052;-78
2024/03/25 13:55:35;;;;;;;0.10;0.10;;;14.80;54.20;;;;;;5051844;28;20460;-79
2024/03/25 13:58:00;;;;;;;0.10;0.10;;;14.80;55.00;;;;;;5043722;28;20159;-79
2024/03/25 14:00:27;;;;;;;0.10;0.10;;;14.80;53.10;;;;;;5034331;28;20045;-79
2024/03/25 14:02:54;;;;;;;0.10;0.10;;;14.90;53.40;;;;;;5043204;28;20079;-79
2024/03/25 14:05:20;;;;;;;0.10;0.10;;;14.90;53.60;;;;;;5041081;28;20033;-79
2024/03/25 14:07:46;;;;;;;0.10;0.10;;;14.80;53.30;;;;;;5035175;28;20026;-79
2024/03/25 14:10:12;;;;;;;0.10;0.10;;;14.80;53.40;;;;;;5051200;28;20087;-79
2024/03/25 14:12:38;;;;;;;0.10;0.10;;;14.70;53.50;;;;;;5056970;28;20029;-79
2024/03/25 14:15:04;;;;;;;0.10;0.10;;;14.70;54.20;;;;;;5051330;28;20031;-79
2024/03/25 14:17:29;;;;;;;0.10;0.10;;;14.70;54.70;;;;;;5021003;28;20075;-79
2024/03/25 14:19:56;;;;;;;0.10;0.10;;;14.60;54.90;;;;;;5039132;28;20040;-79
2024/03/25 14:22:22;;;;;;;0.10;0.10;;;14.80;55.30;;;;;;5039079;28;20030;-79
2024/03/25 14:24:48;;;;;;;0.00;0.00;;;14.80;54.70;;;;;;5042449;28;20067;-79
2024/03/25 14:27:14;;;;;;;0.00;0.00;;;14.60;54.10;;;;;;5055454;28;20056;-78
2024/03/25 14:29:40;;;;;;;0.10;0.10;;;14.60;54.30;;;;;;5058801;28;20091;-79
2024/03/25 14:32:07;;;;;;;0.10;0.10;;;14.60;54.70;;;;;;5039615;28;20059;-78
2024/03/25 14:34:33;;;;;;;0.10;0.10;;;14.70;55.00;;;;;;5038988;28;20382;-78
2024/03/25 14:37:01;;;;;;;0.10;0.10;;;14.70;55.50;;;;;;5038783;28;20021;-78
2024/03/25 14:39:27;;;;;;;0.10;0.10;;;14.80;55.00;;;;;;5021259;28;20025;-78
2024/03/25 14:41:52;;;;;;;0.10;0.10;;;14.80;55.10;;;;;;5058063;28;20032;-79
2024/03/25 14:44:18;;;;;;;0.10;0.10;;;14.90;54.70;;;;;;5055291;28;20108;-79
2024/03/25 14:46:44;;;;;;;0.10;0.10;;;15.00;54.40;;;;;;5038531;28;20033;-79
2024/03/25 14:49:09;;;;;;;0.10;0.10;;;15.00;54.90;;;;;;5038333;28;20029;-77
2024/03/25 14:51:36;;;;;;;0.10;0.10;;;15.10;54.90;;;;;;5051162;28;20029;-79
2024/03/25 14:54:02;;;;;;;0.10;0.10;;;15.10;55.20;;;;;;5040779;28;20025;-79
2024/03/25 14:56:29;;;;;;;0.10;0.10;;;14.90;55.90;;;;;;5058506;28;20024;-79
2024/03/25 14:58:55;;;;;;;0.10;0.10;;;15.10;55.60;;;;;;5030853;28;20063;-79
2024/03/25 15:01:20;;;;;;;0.10;0.10;;;15.10;54.40;;;;;;5038379;28;20036;-79
2024/03/25 15:03:46;;;;;;;0.10;0.10;;;15.00;54.50;;;;;;5053076;28;20040;-79
2024/03/25 15:06:12;;;;;;;0.10;0.10;;;14.90;53.70;;;;;;5051564;28;20116;-79
2024/03/25 15:08:39;;;;;;;0.10;0.10;;;14.90;54.80;;;;;;5038232;28;20061;-79
2024/03/25 15:11:05;;;;;;;0.10;0.10;;;15.00;54.80;;;;;;5038166;28;20021;-79
2024/03/25 15:13:31;;;;;;;0.10;0.10;;;14.80;55.20;;;;;;5040457;28;20025;-79
2024/03/25 15:15:57;;;;;;;0.03;0.03;;;14.80;54.20;;;;;;5057266;28;20482;-79
2024/03/25 15:18:23;;;;;;;0.10;0.10;;;14.80;53.90;;;;;;5050255;28;20087;-79
2024/03/25 15:21:00;;;;;;;0.10;0.10;;;14.70;53.60;;;;;;5038126;28;20032;-79
2024/03/25 15:23:25;;;;;;;0.10;0.10;;;14.80;54.10;;;;;;5036493;28;20585;-79
2024/03/25 15:25:51;;;;;;;0.10;0.10;;;14.80;54.20;;;;;;5046664;28;20033;-79
2024/03/25 15:28:17;;;;;;;0.10;0.10;;;14.80;54.70;;;;;;5037723;28;20084;-79
2024/03/25 15:30:42;;;;;;;0.10;0.10;;;15.00;54.40;;;;;;5037260;28;20041;-79
2024/03/25 15:33:08;;;;;;;0.10;0.10;;;14.80;53.90;;;;;;5054424;28;20028;-79
2024/03/25 15:35:33;;;;;;;0.10;0.10;;;14.70;54.80;;;;;;5057843;28;20100;-79
2024/03/25 15:37:59;;;;;;;0.00;0.00;;;14.70;53.50;;;;;;5049744;28;20036;-78
2024/03/25 15:40:25;;;;;;;0.10;0.10;;;14.50;54.50;;;;;;5044824;28;20025;-77
2024/03/25 15:42:51;;;;;;;0.08;0.08;;;14.50;54.60;;;;;;5057525;28;20024;-75
2024/03/25 15:45:16;;;;;;;0.03;0.03;;;14.40;55.90;;;;;;5057716;28;20026;-80
2024/03/25 15:47:42;;;;;;;0.10;0.10;;;14.30;56.40;;;;;;5047250;28;20030;-80
2024/03/25 15:50:09;;;;;;;0.10;0.10;;;14.40;56.30;;;;;;5040336;28;20091;-78
2024/03/25 15:52:34;;;;;;;0.10;0.10;;;14.40;56.50;;;;;;5046269;28;20018;-78
2024/03/25 15:55:00;;;;;;;0.00;0.00;;;14.40;56.60;;;;;;5046054;28;20040;-79
2024/03/25 15:57:26;;;;;;;0.05;0.05;;;14.30;56.70;;;;;;5046377;28;20021;-79
2024/03/25 15:59:51;;;;;;;0.10;0.10;;;14.30;56.30;;;;;;5047850;28;20025;-79
2024/03/25 16:02:17;;;;;;;0.10;0.10;;;14.10;56.20;;;;;;5047153;28;20036;-80
2024/03/25 16:04:42;;;;;;;0.05;0.05;;;14.10;57.00;;;;;;5034383;28;20053;-80
2024/03/25 16:07:08;;;;;;;0.10;0.10;;;14.20;56.70;;;;;;5037946;28;20026;-79
2024/03/25 16:09:34;;;;;;;0.10;0.10;;;14.30;56.40;;;;;;5037077;28;20039;-80
2024/03/25 16:12:00;;;;;;;0.10;0.10;;;14.40;56.10;;;;;;5058783;28;20025;-79
2024/03/25 16:14:32;;;;;;;0.10;0.10;;;14.50;56.00;;;;;;5049109;28;20037;-80
2024/03/25 16:17:00;;;;;;;0.10;0.10;;;14.50;55.00;;;;;;5045584;28;20033;-80
2024/03/25 16:19:25;;;;;;;0.10;0.10;;;14.50;55.50;;;;;;5046358;28;20108;-80
2024/03/25 16:21:51;;;;;;;0.00;0.00;;;14.60;56.20;;;;;;5065993;28;20101;-78
2024/03/25 16:24:17;;;;;;;0.10;0.10;;;14.60;55.80;;;;;;5063583;28;20059;-80
2024/03/25 16:26:43;;;;;;;0.10;0.10;;;14.50;55.40;;;;;;5075502;28;20249;-80
2024/03/25 16:29:08;;;;;;;0.10;0.10;;;14.40;55.20;;;;;;5057446;28;20862;-80
2024/03/25 16:31:34;;;;;;;0.10;0.10;;;14.30;55.90;;;;;;5051530;28;20040;-80
2024/03/25 16:34:00;;;;;;;0.10;0.10;;;14.20;55.70;;;;;;5051702;28;20036;-80
2024/03/25 16:36:25;;;;;;;0.10;0.10;;;14.10;56.90;;;;;;5044094;28;20022;-80
2024/03/25 16:38:51;;;;;;;0.10;0.10;;;14.20;56.90;;;;;;5042200;28;20033;-80
2024/03/25 16:41:16;;;;;;;0.10;0.10;;;14.20;57.70;;;;;;5053726;28;20033;-79
2024/03/25 16:43:42;;;;;;;0.10;0.10;;;14.20;57.20;;;;;;5059378;28;20048;-81
2024/03/25 16:46:07;;;;;;;0.10;0.10;;;14.20;57.20;;;;;;5034404;28;20079;-82
2024/03/25 16:48:33;;;;;;;0.10;0.10;;;14.30;56.70;;;;;;5035550;28;20803;-79
2024/03/25 16:50:59;;;;;;;0.10;0.10;;;14.20;57.00;;;;;;5060291;28;20031;-81
2024/03/25 16:53:27;;;;;;;0.10;0.10;;;14.00;56.60;;;;;;5053952;28;20421;-80
2024/03/25 16:55:54;;;;;;;0.10;0.10;;;14.00;57.00;;;;;;5032240;28;20027;-79
2024/03/25 16:58:19;;;;;;;0.10;0.10;;;14.10;57.30;;;;;;5045948;28;20112;-80
2024/03/25 17:00:48;;;;;;;0.10;0.10;;;14.10;57.70;;;;;;5045215;28;20029;-79
2024/03/25 17:03:13;;;;;;;0.10;0.10;;;14.00;57.80;;;;;;5064041;28;20111;-79
2024/03/25 17:05:39;;;;;;;0.10;0.10;;;13.90;57.80;;;;;;5061796;28;20099;-79
2024/03/25 17:08:05;;;;;;;0.00;0.00;;;13.80;57.60;;;;;;5064186;28;20025;-80
2024/03/25 17:10:31;;;;;;;0.00;0.00;;;13.70;57.50;;;;;;5046560;28;20028;-80
2024/03/25 17:12:56;;;;;;;0.05;0.05;;;13.60;58.10;;;;;;5065340;28;20033;-79
2024/03/25 17:15:22;;;;;;;0.00;0.00;;;13.70;58.20;;;;;;5063524;28;20055;-80
2024/03/25 17:17:48;;;;;;;0.00;0.00;;;13.70;58.10;;;;;;5064201;28;20145;-80
2024/03/25 17:20:13;;;;;;;0.10;0.10;;;13.70;58.70;;;;;;5063693;28;20033;-79
2024/03/25 17:22:40;;;;;;;0.03;0.03;;;13.70;58.30;;;;;;5064713;28;20025;-80
2024/03/25 17:25:08;;;;;;;0.10;0.10;;;13.60;58.90;;;;;;5057607;28;20546;-80
2024/03/25 17:27:34;;;;;;;0.00;0.00;;;13.60;59.00;;;;;;5055581;28;20035;-80
2024/03/25 17:30:00;;;;;;;0.10;0.10;;;13.60;59.20;;;;;;5071069;28;20033;-80
2024/03/25 17:32:26;;;;;;;0.10;0.10;;;13.60;59.10;;;;;;5056574;28;20060;-80
2024/03/25 17:34:51;;;;;;;0.10;0.10;;;13.50;59.40;;;;;;5035204;28;20444;-80
2024/03/25 17:37:17;;;;;;;0.00;0.00;;;13.50;59.40;;;;;;5035443;28;20026;-80
2024/03/25 17:39:43;;;;;;;0.05;0.05;;;13.50;59.60;;;;;;5039040;28;20021;-80
2024/03/25 17:42:09;;;;;;;0.00;0.00;;;13.60;59.20;;;;;;5026513;28;20499;-80
2024/03/25 17:44:35;;;;;;;0.10;0.10;;;13.60;59.50;;;;;;5053751;28;20071;-81
2024/03/25 17:47:02;;;;;;;0.10;0.10;;;13.60;59.40;;;;;;5047328;28;20033;-80
2024/03/25 17:49:28;;;;;;;0.00;0.00;;;13.50;59.30;;;;;;5050093;28;20031;-80
2024/03/25 17:51:54;;;;;;;0.10;0.10;;;13.50;59.50;;;;;;5046740;28;20104;-80
2024/03/25 17:54:20;;;;;;;0.10;0.10;;;13.40;59.50;;;;;;5044850;28;20108;-80
2024/03/25 17:56:46;;;;;;;0.10;0.10;;;13.30;59.80;;;;;;5048587;28;20053;-79
2024/03/25 17:59:12;;;;;;;0.00;0.00;;;13.30;59.60;;;;;;5045915;28;20474;-86
2024/03/25 18:01:37;;;;;;;0.00;0.00;;;13.30;59.80;;;;;;5048005;28;20075;-78
2024/03/25 18:04:05;;;;;;;0.10;0.10;;;13.30;59.90;;;;;;5046459;28;20033;-77
2024/03/25 18:06:31;;;;;;;0.00;0.00;;;13.30;59.70;;;;;;5041807;28;20029;-91
2024/03/25 18:08:57;;;;;;;0.05;0.05;;;13.20;59.80;;;;;;5042905;28;20083;-82
2024/03/25 18:11:26;;;;;;;0.10;0.10;;;13.20;59.50;;;;;;5040161;28;20029;-83
2024/03/25 18:13:51;;;;;;;0.10;0.10;;;13.10;59.80;;;;;;5039007;28;20052;-80
2024/03/25 18:16:18;;;;;;;0.00;0.00;;;13.10;60.10;;;;;;5052735;28;20029;-83
2024/03/25 18:18:44;;;;;;;0.03;0.03;;;13.00;60.00;;;;;;5059208;28;20098;-78
2024/03/25 18:21:10;;;;;;;0.10;0.10;;;13.10;60.10;;;;;;5036992;28;20021;-80
2024/03/25 18:23:35;;;;;;;0.03;0.03;;;13.10;60.20;;;;;;5058279;28;20437;-80
2024/03/25 18:26:01;;;;;;;0.10;0.10;;;13.00;60.00;;;;;;5031643;28;20041;-82